Brazil, Mississippi
Current Conditions -  °F | °C
As of 5:15 AM on Thursday 23 Oct 2014 (Local Time) from KCKM Reporting Station
Clear Clear  
Wind Chill: 42°   Ceiling: Unl
Heat Index: 45°   Visibility: 10mi
Dew Point: 45°   Wind: 5mph
Humidity: 100%   Direction: 50°NE
Pressure: 30.17"   Gusts: NA
Location:  33.9864°N, 90.3455°W
Report Text: KCKM 231015Z AUTO 05004KT 10SM CLR 07/07 A3017 RMK AO1
Loading
Personal Weather Stations






























Interactive Weather Map
Tropical Storm Tracking
New forecast layout! Learn more

10-Day Weather Forecast

Advertisements
Track Severe Weather on mobile